Greater Kankakee Airport
KIKK : now visible

Airfield :











YOU CAN JOIN US ON...

 
LOGIN :

Register | Disclaimer

   EN    FR    IT 

 









Legend :    VFR   Marginal VFR   IFR   Intensive IFR   Very Intensive IFR
Visi :
Ceiling :
>= 8 km
>= 3000ft
5 to 8 km
1000 to 3000 ft
1500m to 5 km
500 to 1000 ft
800 to 1500m
200 to 500 ft
< 800m
< 200 ft
Symbols :   Thunderstorms  Fog  Heavy snow  Heavy precipitations  Wind > 20 kt







- Airport Elevation : 630 ft


KIKK - Greater Kankakee

CURRENT METAR :
  • 210235Z AUTO 17003KT 10SM CLR 22/20 A3013 RMK AO2 T02230200

EXPIRED METARs :
  • 210215Z AUTO 00000KT 10SM CLR 23/20 A3013 RMK AO2 T02300203
  • 210155Z AUTO 14004KT 10SM CLR 23/21 A3012 RMK AO2 T02310207
  • 210135Z AUTO 13004KT 10SM CLR 23/21 A3012 RMK AO2 T02260214
  • 210115Z AUTO 13003KT 10SM CLR 24/21 A3012 RMK AO2 T02380209
  • 210055Z AUTO 00000KT 10SM CLR 24/21 A3011 RMK AO2 T02410206
  • 210035Z AUTO 00000KT 10SM SCT065 25/21 A3011 RMK AO2 T02450205
  • 210015Z AUTO 00000KT 10SM BKN065 26/21 A3011 RMK AO2 T02570209
  • 202355Z AUTO 00000KT 10SM SCT065 27/21 A3010 RMK AO2 T02660205 10300 20266

TAF N/A
No reported NOTAMs for that airfield.



MET'MAP, your aeronautical weather chart ! - Copyright ORBIFLY December 2007 - Disclaimer

ORBIFLY MET'MAP TEAM :

Programming & Development : Alexandra Zaïnal
Concept & Development : Baudouin d'Aumeries
Co-Development & Prog : Marc-Olivier Méhu
Technical & hardware support : Manuel Goepfert

Contact : metmap@orbifly.com




SOURCES & CREDITS :

   NOAA       Earth
Advisory